createdAt,value
2023-03-29T00:00:09.143Z,953.8
2023-03-29T00:01:10.979Z,953.7
2023-03-29T00:02:38.732Z,953.7
2023-03-29T00:03:41.119Z,953.7
2023-03-29T00:04:43.397Z,953.8
2023-03-29T00:05:45.409Z,953.7
2023-03-29T00:06:47.256Z,953.7
2023-03-29T00:07:49.105Z,953.7
2023-03-29T00:08:50.956Z,953.7
2023-03-29T00:09:52.910Z,953.7
2023-03-29T00:10:54.886Z,953.7
2023-03-29T00:11:56.711Z,953.7
2023-03-29T00:12:58.562Z,953.7
2023-03-29T00:14:00.611Z,953.7
2023-03-29T00:15:02.580Z,953.7
2023-03-29T00:16:04.418Z,953.7
2023-03-29T00:17:06.704Z,953.7
2023-03-29T00:18:09.065Z,953.7
2023-03-29T00:19:10.991Z,953.7
2023-03-29T00:20:12.887Z,953.7
2023-03-29T00:21:14.679Z,953.7
2023-03-29T00:22:16.545Z,953.7
2023-03-29T00:23:18.392Z,953.7
2023-03-29T00:24:20.240Z,953.7
2023-03-29T00:25:22.499Z,953.7
2023-03-29T00:26:24.502Z,953.7
2023-03-29T00:27:26.397Z,953.6
2023-03-29T00:28:28.145Z,953.6
2023-03-29T00:29:29.992Z,953.5
2023-03-29T00:30:31.844Z,953.6
2023-03-29T00:31:33.831Z,953.6
2023-03-29T00:32:36.063Z,953.6
2023-03-29T00:33:37.906Z,953.6
2023-03-29T00:34:39.766Z,953.5
2023-03-29T00:35:41.632Z,953.6
2023-03-29T00:36:43.510Z,953.6
2023-03-29T00:37:45.315Z,953.5
2023-03-29T00:38:47.177Z,953.6
2023-03-29T00:39:49.067Z,953.6
2023-03-29T00:40:51.072Z,953.6
2023-03-29T00:41:53.054Z,953.6
2023-03-29T00:42:55.076Z,953.7
2023-03-29T00:43:57.002Z,953.6
2023-03-29T00:44:58.881Z,953.6
2023-03-29T00:46:00.835Z,953.6
2023-03-29T00:47:02.784Z,953.6
2023-03-29T00:48:04.738Z,953.6
2023-03-29T00:49:06.798Z,953.6
2023-03-29T00:50:08.650Z,953.6
2023-03-29T00:51:10.583Z,953.6
2023-03-29T00:52:12.443Z,953.6
2023-03-29T00:53:14.292Z,953.6
2023-03-29T00:54:16.237Z,953.6
2023-03-29T00:55:18.108Z,953.6
2023-03-29T00:56:20.053Z,953.6
2023-03-29T00:57:22.158Z,953.6
2023-03-29T00:58:24.254Z,953.6
2023-03-29T00:59:26.119Z,953.6
2023-03-29T01:00:27.963Z,953.5
2023-03-29T01:01:29.936Z,953.6
2023-03-29T01:02:32.025Z,953.5
2023-03-29T01:03:34.342Z,953.6
2023-03-29T01:04:36.591Z,953.6
2023-03-29T01:05:38.328Z,953.5
2023-03-29T01:06:40.189Z,953.6
2023-03-29T01:07:41.941Z,953.6
2023-03-29T01:08:43.781Z,953.6
2023-03-29T01:09:45.731Z,953.6
2023-03-29T01:10:47.582Z,953.6
2023-03-29T01:11:49.444Z,953.6
2023-03-29T01:12:51.481Z,953.7
2023-03-29T01:13:53.346Z,953.6
2023-03-29T01:14:55.180Z,953.7
2023-03-29T01:15:57.326Z,953.6
2023-03-29T01:16:59.204Z,953.6
2023-03-29T01:18:01.288Z,953.6
2023-03-29T01:19:03.306Z,953.7
2023-03-29T01:20:05.137Z,953.7
2023-03-29T01:21:07.114Z,953.7
2023-03-29T01:22:08.954Z,953.7
2023-03-29T01:23:10.907Z,953.7
2023-03-29T01:24:12.780Z,953.8
2023-03-29T01:25:14.717Z,953.7
2023-03-29T01:26:16.570Z,953.7
2023-03-29T01:27:18.523Z,953.7
2023-03-29T01:28:20.395Z,953.7
2023-03-29T01:29:22.221Z,953.7
2023-03-29T01:30:24.163Z,953.7
2023-03-29T01:31:26.134Z,953.7
2023-03-29T01:32:28.188Z,953.7
2023-03-29T01:33:30.302Z,953.7
2023-03-29T01:34:32.285Z,953.7
2023-03-29T01:35:34.266Z,953.7
2023-03-29T01:36:36.086Z,953.7
2023-03-29T01:37:38.019Z,953.7
2023-03-29T01:38:39.799Z,953.7
2023-03-29T01:39:41.632Z,953.7
2023-03-29T01:40:43.486Z,953.7
2023-03-29T01:41:45.433Z,953.7
2023-03-29T01:42:47.285Z,953.7
2023-03-29T01:43:49.167Z,953.7
2023-03-29T01:44:50.921Z,953.7
2023-03-29T01:45:52.861Z,953.7
2023-03-29T01:46:55.121Z,953.7
2023-03-29T01:47:57.013Z,953.7
2023-03-29T01:48:59.001Z,953.7
2023-03-29T01:50:00.860Z,953.7
2023-03-29T01:51:03.585Z,953.7
2023-03-29T01:52:06.092Z,953.7
2023-03-29T01:53:08.248Z,953.7
2023-03-29T01:54:10.103Z,953.7
2023-03-29T01:55:12.267Z,953.7
2023-03-29T01:56:14.289Z,953.7
2023-03-29T01:57:16.284Z,953.7
2023-03-29T01:58:18.220Z,953.7
2023-03-29T01:59:20.087Z,953.7
2023-03-29T02:00:21.933Z,953.7
2023-03-29T02:01:23.900Z,953.7
2023-03-29T02:02:26.013Z,953.7
2023-03-29T02:03:28.463Z,953.7
2023-03-29T02:04:30.434Z,953.7
2023-03-29T02:05:32.302Z,953.8
2023-03-29T02:06:34.247Z,953.8
2023-03-29T02:07:36.095Z,953.8
2023-03-29T02:08:37.857Z,953.7
2023-03-29T02:09:39.695Z,953.8
2023-03-29T02:10:41.649Z,953.8
2023-03-29T02:11:43.499Z,953.8
2023-03-29T02:12:45.345Z,953.8
2023-03-29T02:13:47.096Z,953.7
2023-03-29T02:14:48.959Z,953.8
2023-03-29T02:15:51.005Z,953.8
2023-03-29T02:16:53.058Z,953.8
2023-03-29T02:17:55.164Z,953.9
2023-03-29T02:18:57.061Z,953.8
2023-03-29T02:19:58.900Z,953.8
2023-03-29T02:21:01.594Z,953.9
2023-03-29T02:22:04.039Z,953.8
2023-03-29T02:23:05.891Z,953.9
2023-03-29T02:24:07.845Z,953.8
2023-03-29T02:25:09.807Z,953.8
2023-03-29T02:26:11.753Z,953.9
2023-03-29T02:27:13.699Z,953.9
2023-03-29T02:28:15.549Z,953.9
2023-03-29T02:29:17.503Z,953.9
2023-03-29T02:30:19.377Z,953.9
2023-03-29T02:31:21.337Z,953.9
2023-03-29T02:32:23.234Z,953.9
2023-03-29T02:33:24.919Z,953.9
2023-03-29T02:34:26.818Z,954
2023-03-29T02:35:28.700Z,954
2023-03-29T02:36:30.553Z,954
2023-03-29T02:37:32.512Z,954
2023-03-29T02:38:34.354Z,953.9
2023-03-29T02:39:36.414Z,953.9
2023-03-29T02:40:38.264Z,954
2023-03-29T02:41:40.210Z,954
2023-03-29T02:42:42.071Z,954
2023-03-29T02:43:43.920Z,953.9
2023-03-29T02:44:45.760Z,953.9
2023-03-29T02:45:47.745Z,954
2023-03-29T02:46:49.693Z,953.9
2023-03-29T02:47:51.957Z,953.9
2023-03-29T02:48:53.886Z,954
2023-03-29T02:49:55.727Z,954
2023-03-29T02:50:57.975Z,954
2023-03-29T02:52:00.074Z,954
2023-03-29T02:53:02.001Z,954
2023-03-29T02:54:03.846Z,954.1
2023-03-29T02:55:05.618Z,954.1
2023-03-29T02:56:07.456Z,954.1
2023-03-29T02:57:09.447Z,954.1
2023-03-29T02:58:11.348Z,954
2023-03-29T02:59:14.851Z,954.1
2023-03-29T03:00:16.808Z,954.1
2023-03-29T03:01:18.762Z,954.1
2023-03-29T03:02:20.940Z,954.1
2023-03-29T03:03:23.278Z,954.1
2023-03-29T03:04:25.433Z,954.1
2023-03-29T03:05:27.120Z,954.1
2023-03-29T03:06:28.922Z,954.1
2023-03-29T03:07:30.701Z,954.1
2023-03-29T03:08:32.717Z,954.1
2023-03-29T03:09:34.680Z,954.1
2023-03-29T03:10:36.632Z,954.2
2023-03-29T03:11:38.488Z,954.1
2023-03-29T03:12:40.334Z,954.2
2023-03-29T03:13:42.274Z,954.2
2023-03-29T03:14:44.127Z,954.2
2023-03-29T03:15:46.079Z,954.2
2023-03-29T03:16:48.213Z,954.3
2023-03-29T03:17:50.530Z,954.3
2023-03-29T03:18:52.455Z,954.2
2023-03-29T03:19:54.296Z,954.2
2023-03-29T03:20:56.165Z,954.2
2023-03-29T03:21:57.971Z,954.3
2023-03-29T03:22:59.779Z,954.3
2023-03-29T03:24:01.591Z,954.3
2023-03-29T03:25:03.446Z,954.2
2023-03-29T03:26:05.300Z,954.3
2023-03-29T03:27:07.050Z,954.2
2023-03-29T03:28:08.997Z,954.3
2023-03-29T03:29:10.835Z,954.3
2023-03-29T03:30:12.697Z,954.3
2023-03-29T03:31:14.808Z,954.3
2023-03-29T03:32:16.937Z,954.2
2023-03-29T03:33:18.764Z,954.3
2023-03-29T03:34:20.599Z,954.4
2023-03-29T03:35:22.345Z,954.3
2023-03-29T03:36:24.198Z,954.3
2023-03-29T03:37:26.046Z,954.4
2023-03-29T03:38:27.908Z,954.3
2023-03-29T03:39:29.859Z,954.3
2023-03-29T03:40:31.636Z,954.3
2023-03-29T03:41:33.383Z,954.4
2023-03-29T03:42:35.191Z,954.4
2023-03-29T03:43:37.060Z,954.3
2023-03-29T03:44:38.901Z,954.3
2023-03-29T03:45:40.768Z,954.3
2023-03-29T03:46:42.607Z,954.4
2023-03-29T03:47:44.824Z,954.3
2023-03-29T03:48:46.739Z,954.3
2023-03-29T03:49:48.552Z,954.2
2023-03-29T03:50:50.401Z,954.3
2023-03-29T03:51:53.192Z,954.3
2023-03-29T03:52:55.023Z,954.4
2023-03-29T03:53:56.980Z,954.4
2023-03-29T03:54:58.825Z,954.5
2023-03-29T03:56:00.778Z,954.4
2023-03-29T03:57:02.860Z,954.4
2023-03-29T03:58:04.689Z,954.5
2023-03-29T03:59:06.647Z,954.4
2023-03-29T04:00:08.495Z,954.5
2023-03-29T04:01:10.445Z,954.5
2023-03-29T04:02:12.313Z,954.5
2023-03-29T04:03:14.767Z,954.5
2023-03-29T04:04:17.135Z,954.5
2023-03-29T04:05:19.073Z,954.5
2023-03-29T04:06:21.141Z,954.5
2023-03-29T04:07:22.997Z,954.5
2023-03-29T04:08:24.762Z,954.5
2023-03-29T04:09:26.685Z,954.6
2023-03-29T04:10:28.460Z,954.6
2023-03-29T04:11:30.253Z,954.6
2023-03-29T04:12:32.228Z,954.6
2023-03-29T04:13:34.083Z,954.6
2023-03-29T04:14:35.926Z,954.6
2023-03-29T04:15:37.774Z,954.6
2023-03-29T04:16:39.737Z,954.7
2023-03-29T04:17:42.031Z,954.6
2023-03-29T04:18:44.752Z,954.7
2023-03-29T04:19:46.908Z,954.7
2023-03-29T04:20:48.782Z,954.7
2023-03-29T04:21:50.626Z,954.7
2023-03-29T04:22:52.573Z,954.7
2023-03-29T04:23:54.421Z,954.7
2023-03-29T04:24:56.365Z,954.7
2023-03-29T04:25:58.224Z,954.7
2023-03-29T04:27:00.194Z,954.8
2023-03-29T04:28:02.033Z,954.7
2023-03-29T04:29:03.876Z,954.7
2023-03-29T04:30:05.726Z,954.7
2023-03-29T04:31:07.712Z,954.7
2023-03-29T04:32:09.638Z,954.7
2023-03-29T04:33:11.695Z,954.7
2023-03-29T04:34:13.761Z,954.7
2023-03-29T04:35:15.590Z,954.7
2023-03-29T04:36:17.662Z,954.8
2023-03-29T04:37:19.578Z,954.8
2023-03-29T04:38:21.444Z,954.8
2023-03-29T04:39:23.193Z,954.8
2023-03-29T04:40:25.040Z,954.8
2023-03-29T04:41:27.117Z,954.8
2023-03-29T04:42:28.952Z,954.8
2023-03-29T04:43:30.912Z,954.8
2023-03-29T04:44:32.765Z,954.8
2023-03-29T04:45:34.676Z,954.8
2023-03-29T04:46:36.781Z,954.9
2023-03-29T04:47:38.744Z,954.9
2023-03-29T04:48:40.778Z,954.9
2023-03-29T04:49:42.762Z,954.9
2023-03-29T04:50:44.690Z,954.8
2023-03-29T04:51:46.544Z,954.9
2023-03-29T04:52:48.385Z,955
2023-03-29T04:53:50.232Z,954.9
2023-03-29T04:54:52.047Z,955
2023-03-29T04:55:54.034Z,954.9
2023-03-29T04:56:56.002Z,954.9
2023-03-29T04:57:57.852Z,954.9
2023-03-29T04:58:59.687Z,955
2023-03-29T05:00:01.653Z,955
2023-03-29T05:01:04.060Z,955
2023-03-29T05:02:06.280Z,955
2023-03-29T05:03:08.329Z,955
2023-03-29T05:04:13.312Z,955.1
2023-03-29T05:05:15.310Z,955
2023-03-29T05:06:17.233Z,955.1
2023-03-29T05:07:19.023Z,955.1
2023-03-29T05:08:20.845Z,955.1
2023-03-29T05:09:22.765Z,955.2
2023-03-29T05:10:24.742Z,955.1
2023-03-29T05:11:26.598Z,955.2
2023-03-29T05:12:28.465Z,955.2
2023-03-29T05:13:30.333Z,955.3
2023-03-29T05:14:32.077Z,955.2
2023-03-29T05:15:33.928Z,955.3
2023-03-29T05:16:35.909Z,955.3
2023-03-29T05:17:38.052Z,955.3
2023-03-29T05:18:40.067Z,955.3
2023-03-29T05:19:41.902Z,955.3
2023-03-29T05:20:44.069Z,955.3
2023-03-29T05:21:46.216Z,955.3
2023-03-29T05:22:48.069Z,955.3
2023-03-29T05:23:49.923Z,955.4
2023-03-29T05:24:51.768Z,955.4
2023-03-29T05:25:53.615Z,955.4
2023-03-29T05:26:55.474Z,955.4
2023-03-29T05:27:57.204Z,955.4
2023-03-29T05:28:59.172Z,955.5
2023-03-29T05:30:01.024Z,955.5
2023-03-29T05:31:03.623Z,955.5
2023-03-29T05:32:06.079Z,955.6
2023-03-29T05:33:08.133Z,955.5
2023-03-29T05:34:10.044Z,955.6
2023-03-29T05:35:11.902Z,955.6
2023-03-29T05:36:14.118Z,955.6
2023-03-29T05:37:16.019Z,955.7
2023-03-29T05:38:18.365Z,955.6
2023-03-29T05:39:20.442Z,955.6
2023-03-29T05:40:22.055Z,955.6
2023-03-29T05:41:23.866Z,955.6
2023-03-29T05:42:25.687Z,955.6
2023-03-29T05:43:27.628Z,955.6
2023-03-29T05:44:29.783Z,955.6
2023-03-29T05:45:31.731Z,955.6
2023-03-29T05:46:33.697Z,955.7
2023-03-29T05:47:35.653Z,955.7
2023-03-29T05:48:37.499Z,955.7
2023-03-29T05:49:39.234Z,955.7
2023-03-29T05:50:41.185Z,955.7
2023-03-29T05:51:45.007Z,955.7
2023-03-29T05:52:46.831Z,955.8
2023-03-29T05:53:48.861Z,955.7
2023-03-29T05:54:50.744Z,955.8
2023-03-29T05:55:52.534Z,955.7
2023-03-29T05:56:54.464Z,955.8
2023-03-29T05:57:56.395Z,955.7
2023-03-29T05:58:58.349Z,955.8
2023-03-29T06:00:00.296Z,955.8
2023-03-29T06:01:02.693Z,955.8
2023-03-29T06:02:05.449Z,955.8
2023-03-29T06:03:22.351Z,955.8
2023-03-29T06:04:24.870Z,955.8
2023-03-29T06:05:26.961Z,955.8
2023-03-29T06:06:28.815Z,955.8
2023-03-29T06:07:30.794Z,955.7
2023-03-29T06:08:32.611Z,955.7
2023-03-29T06:09:34.598Z,955.7
2023-03-29T06:10:36.543Z,955.7
2023-03-29T06:11:38.595Z,955.7
2023-03-29T06:12:40.416Z,955.7
2023-03-29T06:13:42.310Z,955.7
2023-03-29T06:14:44.118Z,955.7
2023-03-29T06:15:45.972Z,955.8
2023-03-29T06:16:47.954Z,955.8
2023-03-29T06:17:50.018Z,955.8
2023-03-29T06:18:52.041Z,955.8
2023-03-29T06:19:53.932Z,955.8
2023-03-29T06:20:55.724Z,955.9
2023-03-29T06:21:57.564Z,955.9
2023-03-29T06:22:59.466Z,955.9
2023-03-29T06:24:01.595Z,955.9
2023-03-29T06:25:03.779Z,955.9
2023-03-29T06:26:05.496Z,955.9
2023-03-29T06:27:07.454Z,955.9
2023-03-29T06:28:09.300Z,955.9
2023-03-29T06:29:11.255Z,955.9
2023-03-29T06:30:13.223Z,956
2023-03-29T06:31:15.301Z,955.8
2023-03-29T06:32:17.114Z,955.9
2023-03-29T06:33:19.167Z,956
2023-03-29T06:34:21.275Z,956
2023-03-29T06:35:23.284Z,956
2023-03-29T06:36:25.129Z,956
2023-03-29T06:37:27.192Z,956
2023-03-29T06:38:29.178Z,956
2023-03-29T06:39:30.988Z,956.1
2023-03-29T06:40:33.068Z,956.1
2023-03-29T06:41:34.991Z,956.1
2023-03-29T06:42:36.654Z,956.1
2023-03-29T06:43:38.488Z,956.1
2023-03-29T06:44:40.348Z,956.2
2023-03-29T06:45:42.192Z,956.1
2023-03-29T06:46:44.170Z,956.2
2023-03-29T06:47:46.619Z,956.2
2023-03-29T06:48:48.655Z,956.2
2023-03-29T06:49:50.612Z,956.2
2023-03-29T06:50:52.468Z,956.2
2023-03-29T06:51:54.540Z,956.2
2023-03-29T06:52:56.367Z,956.2
2023-03-29T06:53:58.139Z,956.2
2023-03-29T06:54:59.888Z,956.2
2023-03-29T06:56:01.781Z,956.2
2023-03-29T06:57:03.582Z,956.1
2023-03-29T06:58:05.401Z,956.1
2023-03-29T06:59:07.263Z,956.2
2023-03-29T07:00:09.269Z,956.2
2023-03-29T07:01:11.598Z,956.1
2023-03-29T07:02:13.740Z,956.1
2023-03-29T07:03:15.710Z,956.1
2023-03-29T07:04:18.190Z,956
2023-03-29T07:05:20.214Z,956
2023-03-29T07:06:22.155Z,956
2023-03-29T07:07:23.905Z,956
2023-03-29T07:08:25.764Z,956
2023-03-29T07:09:27.628Z,956
2023-03-29T07:10:29.557Z,956
2023-03-29T07:11:31.181Z,955.9
2023-03-29T07:12:33.050Z,956
2023-03-29T07:13:35.130Z,956
2023-03-29T07:14:37.172Z,956
2023-03-29T07:15:38.880Z,955.9
2023-03-29T07:16:41.271Z,955.9
2023-03-29T07:17:43.379Z,955.9
2023-03-29T07:18:45.311Z,956
2023-03-29T07:19:47.334Z,955.9
2023-03-29T07:20:49.167Z,956
2023-03-29T07:21:51.337Z,956
2023-03-29T07:22:53.035Z,956
2023-03-29T07:23:54.812Z,956
2023-03-29T07:24:56.918Z,956.1
2023-03-29T07:25:58.726Z,956.1
2023-03-29T07:27:05.358Z,956
2023-03-29T07:28:07.072Z,956
2023-03-29T07:29:08.897Z,956
2023-03-29T07:30:11.132Z,955.9
2023-03-29T07:31:13.392Z,955.9
2023-03-29T07:32:15.378Z,956
2023-03-29T07:33:17.658Z,956
2023-03-29T07:34:19.687Z,956
2023-03-29T07:35:21.533Z,956
2023-03-29T07:36:23.520Z,956
2023-03-29T07:37:25.433Z,956
2023-03-29T07:38:27.381Z,955.9
2023-03-29T07:39:29.340Z,955.9
2023-03-29T07:40:31.319Z,955.9
2023-03-29T07:41:33.243Z,955.9
2023-03-29T07:42:35.101Z,956
2023-03-29T07:43:36.967Z,956
2023-03-29T07:44:39.226Z,955.9
2023-03-29T07:45:41.380Z,955.9
2023-03-29T07:46:43.588Z,955.9
2023-03-29T07:47:45.731Z,955.9
2023-03-29T07:48:47.860Z,956
2023-03-29T07:49:49.961Z,955.8
2023-03-29T07:50:52.188Z,955.9
2023-03-29T07:51:54.296Z,955.9
2023-03-29T07:52:56.222Z,955.9
2023-03-29T07:53:58.199Z,955.8
2023-03-29T07:55:00.050Z,955.9
2023-03-29T07:56:01.909Z,955.8
2023-03-29T07:57:03.794Z,955.8
2023-03-29T07:58:05.711Z,955.8
2023-03-29T07:59:07.439Z,955.8
2023-03-29T08:00:09.235Z,955.8
2023-03-29T08:01:18.937Z,955.8
2023-03-29T08:02:21.609Z,955.7
2023-03-29T08:03:23.746Z,955.7
2023-03-29T08:04:25.959Z,955.7
2023-03-29T08:05:42.361Z,955.7
2023-03-29T08:06:44.375Z,955.7
2023-03-29T08:07:46.302Z,955.6
2023-03-29T08:08:48.053Z,955.7
2023-03-29T08:09:50.135Z,955.8
2023-03-29T08:10:52.079Z,955.6
2023-03-29T08:11:54.165Z,955.7
2023-03-29T08:12:56.007Z,955.6
2023-03-29T08:13:57.841Z,955.7
2023-03-29T08:14:59.788Z,955.7
2023-03-29T08:16:01.545Z,955.7
2023-03-29T08:17:03.545Z,955.7
2023-03-29T08:18:05.760Z,955.6
2023-03-29T08:19:07.665Z,955.6
2023-03-29T08:20:09.650Z,955.6
2023-03-29T08:21:11.500Z,955.5
2023-03-29T08:22:13.507Z,955.6
2023-03-29T08:23:15.519Z,955.6
2023-03-29T08:24:21.369Z,955.6
2023-03-29T08:25:23.146Z,955.6
2023-03-29T08:26:25.161Z,955.6
2023-03-29T08:27:27.152Z,955.6
2023-03-29T08:28:28.876Z,955.6
2023-03-29T08:29:30.716Z,955.6
2023-03-29T08:30:32.563Z,955.6
2023-03-29T08:31:34.704Z,955.6
2023-03-29T08:32:37.024Z,955.6
2023-03-29T08:33:38.934Z,955.6
2023-03-29T08:34:40.779Z,955.6
2023-03-29T08:35:42.745Z,955.6
2023-03-29T08:36:44.755Z,955.6
2023-03-29T08:37:46.745Z,955.6
2023-03-29T08:38:48.535Z,955.6
2023-03-29T08:39:50.283Z,955.6
2023-03-29T08:40:52.111Z,955.5
2023-03-29T08:41:53.897Z,955.6
2023-03-29T08:42:55.744Z,955.6
2023-03-29T08:43:57.532Z,955.6
2023-03-29T08:44:59.387Z,955.6
2023-03-29T08:46:01.472Z,955.6
2023-03-29T08:47:03.745Z,955.6
2023-03-29T08:48:05.889Z,955.6
2023-03-29T08:49:07.822Z,955.6
2023-03-29T08:50:09.659Z,955.6
2023-03-29T08:51:11.611Z,955.6
2023-03-29T08:52:13.559Z,955.6
2023-03-29T08:53:15.536Z,955.6
2023-03-29T08:54:17.372Z,955.6
2023-03-29T08:55:19.112Z,955.5
2023-03-29T08:56:20.954Z,955.6
2023-03-29T08:57:23.050Z,955.5
2023-03-29T08:58:25.096Z,955.5
2023-03-29T08:59:26.932Z,955.5
2023-03-29T09:00:28.782Z,955.5
2023-03-29T09:01:30.649Z,955.4
2023-03-29T09:02:32.812Z,955.5
2023-03-29T09:03:34.998Z,955.5
2023-03-29T09:04:37.096Z,955.5
2023-03-29T09:05:39.040Z,955.5
2023-03-29T09:06:40.992Z,955.4
2023-03-29T09:07:42.846Z,955.5
2023-03-29T09:08:44.593Z,955.5
2023-03-29T09:09:46.457Z,955.4
2023-03-29T09:10:48.419Z,955.4
2023-03-29T09:11:50.151Z,955.5
2023-03-29T09:12:52.408Z,955.4
2023-03-29T09:13:54.423Z,955.4
2023-03-29T09:14:56.200Z,955.4
2023-03-29T09:15:58.298Z,955.3
2023-03-29T09:17:00.120Z,955.4
2023-03-29T09:18:02.071Z,955.4
2023-03-29T09:19:04.014Z,955.4
2023-03-29T09:20:06.065Z,955.3
2023-03-29T09:21:08.230Z,955.3
2023-03-29T09:22:09.940Z,955.4
2023-03-29T09:23:11.824Z,955.5
2023-03-29T09:24:13.664Z,955.5
2023-03-29T09:25:15.425Z,955.3
2023-03-29T09:26:17.158Z,955.3
2023-03-29T09:27:19.020Z,955.3
2023-03-29T09:28:20.963Z,955.4
2023-03-29T09:29:23.054Z,955.2
2023-03-29T09:30:24.764Z,955.3
2023-03-29T09:31:26.739Z,955.3
2023-03-29T09:32:28.791Z,955.3
2023-03-29T09:33:30.626Z,955.3
2023-03-29T09:34:32.590Z,955.2
2023-03-29T09:35:34.463Z,955.3
2023-03-29T09:36:36.387Z,955.3
2023-03-29T09:37:38.243Z,955.3
2023-03-29T09:38:40.206Z,955.2
2023-03-29T09:39:41.939Z,955.2
2023-03-29T09:40:43.798Z,955.2
2023-03-29T09:41:45.721Z,955.2
2023-03-29T09:42:47.592Z,955.2
2023-03-29T09:43:49.443Z,955.3
2023-03-29T09:44:51.265Z,955.2
2023-03-29T09:45:53.245Z,955.2
2023-03-29T09:46:55.298Z,955.2
2023-03-29T09:47:57.374Z,955.2
2023-03-29T09:48:59.588Z,955.1
2023-03-29T09:50:01.508Z,955.2
2023-03-29T09:51:04.290Z,955.2
2023-03-29T09:52:06.779Z,955.2
2023-03-29T09:53:08.654Z,955.2
2023-03-29T09:54:10.492Z,955.1
2023-03-29T09:55:12.610Z,955.1
2023-03-29T09:56:15.015Z,955.1
2023-03-29T09:57:16.994Z,955.3
2023-03-29T09:58:18.922Z,955.2
2023-03-29T09:59:20.742Z,955.1
2023-03-29T10:00:22.969Z,955.1
2023-03-29T10:01:24.893Z,955.1
2023-03-29T10:02:27.676Z,955.1
2023-03-29T10:03:29.736Z,955.1
2023-03-29T10:04:31.669Z,955
2023-03-29T10:05:33.613Z,955.3
2023-03-29T10:06:35.479Z,955.2
2023-03-29T10:07:37.204Z,955.2
2023-03-29T10:08:39.057Z,955.1
2023-03-29T10:09:41.405Z,955.2
2023-03-29T10:10:44.196Z,955.2
2023-03-29T10:11:45.951Z,955.2
2023-03-29T10:12:47.796Z,955.2
2023-03-29T10:13:49.541Z,955.1
2023-03-29T10:14:54.393Z,955.1
2023-03-29T10:15:56.447Z,955.1
2023-03-29T10:16:58.489Z,955.1
2023-03-29T10:18:00.660Z,955.1
2023-03-29T10:19:02.588Z,955.1
2023-03-29T10:20:06.027Z,955.1
2023-03-29T10:21:10.728Z,955.1
2023-03-29T10:22:12.734Z,955.1
2023-03-29T10:23:14.506Z,955.1
2023-03-29T10:24:16.233Z,955.1
2023-03-29T10:25:18.103Z,955.1
2023-03-29T10:26:20.026Z,955.1
2023-03-29T10:27:21.888Z,955.1
2023-03-29T10:28:23.736Z,955.2
2023-03-29T10:29:25.550Z,955.2
2023-03-29T10:30:27.440Z,955.1
2023-03-29T10:31:29.463Z,955.2
2023-03-29T10:32:31.751Z,955.1
2023-03-29T10:33:33.706Z,955.1
2023-03-29T10:34:35.650Z,955.1
2023-03-29T10:35:37.510Z,955.1
2023-03-29T10:36:39.440Z,955
2023-03-29T10:37:41.411Z,955
2023-03-29T10:38:43.339Z,955.1
2023-03-29T10:39:45.250Z,955.1
2023-03-29T10:40:47.455Z,955.1
2023-03-29T10:41:49.326Z,955.1
2023-03-29T10:42:51.074Z,955
2023-03-29T10:43:53.023Z,955
2023-03-29T10:44:54.869Z,955.1
2023-03-29T10:45:57.079Z,955
2023-03-29T10:46:59.107Z,955
2023-03-29T10:48:01.176Z,955
2023-03-29T10:49:03.088Z,955
2023-03-29T10:50:04.944Z,955.1
2023-03-29T10:51:06.708Z,955.1
2023-03-29T10:52:08.954Z,955
2023-03-29T10:53:10.898Z,955
2023-03-29T10:54:12.757Z,954.8
2023-03-29T10:55:14.620Z,954.9
2023-03-29T10:56:16.469Z,954.8
2023-03-29T10:57:22.302Z,955
2023-03-29T10:58:24.769Z,954.9
2023-03-29T10:59:26.691Z,954.9
2023-03-29T11:00:28.496Z,954.8
2023-03-29T11:01:31.206Z,954.8
2023-03-29T11:02:33.962Z,954.9
2023-03-29T11:03:36.216Z,954.7
2023-03-29T11:04:38.114Z,954.8
2023-03-29T11:05:39.860Z,954.7
2023-03-29T11:06:41.640Z,954.7
2023-03-29T11:07:43.584Z,954.7
2023-03-29T11:08:45.406Z,954.6
2023-03-29T11:09:47.166Z,954.8
2023-03-29T11:10:49.105Z,954.7
2023-03-29T11:12:15.405Z,954.7
2023-03-29T11:13:18.430Z,954.7
2023-03-29T11:14:20.126Z,954.7
2023-03-29T11:15:22.000Z,954.6
2023-03-29T11:16:23.958Z,954.6
2023-03-29T11:17:26.147Z,954.6
2023-03-29T11:18:27.956Z,954.6
2023-03-29T11:19:29.808Z,954.5
2023-03-29T11:20:31.729Z,954.6
2023-03-29T11:21:33.627Z,954.6
2023-03-29T11:22:35.461Z,954.6
2023-03-29T11:23:37.401Z,954.6
2023-03-29T11:24:39.311Z,954.6
2023-03-29T11:25:41.128Z,954.5
2023-03-29T11:26:43.072Z,954.5
2023-03-29T11:27:44.819Z,954.6
2023-03-29T11:28:49.548Z,954.4
2023-03-29T11:29:51.321Z,954.4
2023-03-29T11:30:53.366Z,954.5
2023-03-29T11:31:55.462Z,954.6
2023-03-29T11:32:57.678Z,954.6
2023-03-29T11:34:00.054Z,954.5
2023-03-29T11:35:01.981Z,954.5
2023-03-29T11:36:03.828Z,954.5
2023-03-29T11:37:05.662Z,954.5
2023-03-29T11:38:07.528Z,954.5
2023-03-29T11:39:09.390Z,954.5
2023-03-29T11:40:11.437Z,954.5
2023-03-29T11:41:13.530Z,954.5
2023-03-29T11:42:15.334Z,954.5
2023-03-29T11:43:17.186Z,954.5
2023-03-29T11:44:19.028Z,954.6
2023-03-29T11:45:20.722Z,954.7
2023-03-29T11:46:22.793Z,954.5
2023-03-29T11:47:24.702Z,954.6
2023-03-29T11:48:26.724Z,954.6
2023-03-29T11:49:28.690Z,954.7
2023-03-29T11:50:30.646Z,954.5
2023-03-29T11:51:32.626Z,954.4
2023-03-29T11:52:34.460Z,954.4
2023-03-29T11:53:36.235Z,954.5
2023-03-29T11:54:38.034Z,954.6
2023-03-29T11:55:39.996Z,954.4
2023-03-29T11:56:41.882Z,954.6
2023-03-29T11:57:43.689Z,954.5
2023-03-29T11:58:45.470Z,954.5
2023-03-29T11:59:47.202Z,954.4
2023-03-29T12:00:49.128Z,954.4
2023-03-29T12:01:51.098Z,954.5
2023-03-29T12:02:53.282Z,954.4
2023-03-29T12:03:55.704Z,954.4
2023-03-29T12:04:57.925Z,954.4
2023-03-29T12:05:59.729Z,954.5
2023-03-29T12:07:01.991Z,954.4
2023-03-29T12:08:03.948Z,954.4
2023-03-29T12:09:05.884Z,954.3
2023-03-29T12:10:07.850Z,954.3
2023-03-29T12:11:09.799Z,954.3
2023-03-29T12:12:11.643Z,954.3
2023-03-29T12:13:13.393Z,954.3
2023-03-29T12:14:15.246Z,954.4
2023-03-29T12:15:17.086Z,954.3
2023-03-29T12:16:19.065Z,954.3
2023-03-29T12:17:20.892Z,954.3
2023-03-29T12:18:22.766Z,954.4
2023-03-29T12:19:24.711Z,954.4
2023-03-29T12:20:26.603Z,954.4
2023-03-29T12:21:28.594Z,954.4
2023-03-29T12:22:30.453Z,954.5
2023-03-29T12:23:32.290Z,954.4
2023-03-29T12:24:34.081Z,954.5
2023-03-29T12:25:36.002Z,954.5
2023-03-29T12:26:37.753Z,954.5
2023-03-29T12:27:39.588Z,954.5
2023-03-29T12:28:41.560Z,954.5
2023-03-29T12:29:43.531Z,954.4
2023-03-29T12:30:45.291Z,954.4
2023-03-29T12:31:47.115Z,954.4
2023-03-29T12:32:48.962Z,954.5
2023-03-29T12:33:50.812Z,954.4
2023-03-29T12:34:52.745Z,954.5
2023-03-29T12:35:54.772Z,954.5
2023-03-29T12:36:56.768Z,954.4
2023-03-29T12:37:58.709Z,954.5
2023-03-29T12:39:00.560Z,954.5
2023-03-29T12:40:02.506Z,954.4
2023-03-29T12:41:05.154Z,954.4
2023-03-29T12:42:07.919Z,954.5
2023-03-29T12:43:10.360Z,954.4
2023-03-29T12:44:12.304Z,954.4
2023-03-29T12:45:14.125Z,954.4
2023-03-29T12:46:16.188Z,954.3
2023-03-29T12:47:18.335Z,954.3
2023-03-29T12:48:20.191Z,954.3
2023-03-29T12:49:21.939Z,954.3
2023-03-29T12:50:24.096Z,954.4
2023-03-29T12:51:26.076Z,954.3
2023-03-29T12:52:28.000Z,954.4
2023-03-29T12:53:29.849Z,954.4
2023-03-29T12:54:31.812Z,954.4
2023-03-29T12:55:33.646Z,954.4
2023-03-29T12:56:35.501Z,954.3
2023-03-29T12:57:37.349Z,954.3
2023-03-29T12:58:39.451Z,954.3
2023-03-29T12:59:41.453Z,954.3
2023-03-29T13:00:43.435Z,954.3
2023-03-29T13:01:45.770Z,954.3
2023-03-29T13:02:48.046Z,954.3
2023-03-29T13:03:50.017Z,954.3
2023-03-29T13:04:52.068Z,954.3
2023-03-29T13:05:53.985Z,954.3
2023-03-29T13:06:56.071Z,954.3
2023-03-29T13:07:57.923Z,954.3
2023-03-29T13:08:59.590Z,954.4
2023-03-29T13:10:01.388Z,954.3
2023-03-29T13:11:03.340Z,954.4
2023-03-29T13:12:05.198Z,954.3
2023-03-29T13:13:06.939Z,954.3
2023-03-29T13:14:08.801Z,954.3
2023-03-29T13:15:10.542Z,954.3
2023-03-29T13:16:12.856Z,954.3
2023-03-29T13:17:19.674Z,954.4
2023-03-29T13:18:21.523Z,954.3
2023-03-29T13:19:23.471Z,954.3
2023-03-29T13:20:25.315Z,954.4
2023-03-29T13:21:27.276Z,954.3
2023-03-29T13:22:29.068Z,954.3
2023-03-29T13:23:30.914Z,954.4
2023-03-29T13:24:32.723Z,954.3